METAR、SPECI、TAF(飛行場実況・予報)


■ METAR、SPECI(飛行場実況)

SCAN  RJEO 120400Z 13008KT 9999 SCT006 BKN010 19/17 Q1006 RMK A2971
SCAN RJEO 120500Z 15007KT 8000 SCT010 BKN020 19/18 Q1005 RMK A2969
SCAN RJEO 130000Z 12004KT 7000 FEW002 BKN004 18/18 Q1003 RMK A2964
SCAN RJEO 130100Z 18003KT 0100 RA ////// 18/18 Q1004 RMK A2966
SCAN RJEO 130200Z 09004KT 0100 FG ////// 18/18 Q1003 RMK A2964
SCAN RJEO 130300Z 13004KT 1000 BR BKN002 19/19 Q1003 RMK A2962
SCAN RJEO 130333Z 12006KT 1000 BR BKN003 19/19 Q1003 RMK A2962
SCAN RJEO 130344Z 11006KT 1800 BR FEW002 SCT003 BKN005 19/19 Q1003 RMK A2962
SCAN RJEO 130400Z 11005KT 2000 BR FEW002 SCT006 BKN008 19/19 Q1003 RMK A2962
SCAN RJEO 130500Z 14004KT 6000 FEW006 SCT012 20/19 Q1003 RMK A2962
SCAN RJEO 140000Z 27004KT 8000 SCT004 BKN007 16/15 Q1008 RMK A2979
SCAN RJEO 140100Z 27004KT 8000 FEW004 BKN006 16/15 Q1009 RMK A2981
SCAN RJEO 140200Z 31007KT 8000 SCT005 BKN008 15/14 Q1009 RMK A2981
SCAN RJEO 140300Z 35006KT 9999 FEW007 SCT015 17/15 Q1009 RMK A2981
SCAN RJEO 140400Z 28003KT 9999 BKN005 16/14 Q1009 RMK A2980
SCAN RJEO 140500Z 25006KT 9999 FEW005 BKN007 16/14 Q1009 RMK A2980
SCAN RJEO 150000Z 09011KT CAVOK 22/17 Q1007 RMK A2976
SCAN RJEO 150100Z 09011KT 9999 FEW040 SCTXXX 22/18 Q1007 RMK A2975
SCAN RJEO 150200Z 09011KT 9999 FEW030 SCTXXX 22/17 Q1007 RMK A2974
SCAN RJEO 150300Z 09009KT CAVOK 23/16 Q1006 RMK A2973
SCAN RJEO 150400Z 10007KT CAVOK 23/17 Q1006 RMK A2973
SCAN RJEO 150500Z 09009KT CAVOK 23/17 Q1006 RMK A2971

■ TAF(飛行場予報)


				

お知らせ

新着情報

  • 太陽光発電量推算
  • 気象予報士試験過去問・講座
  • Yahoo Weather shop
  • メルカリ Weather shop
  • BASE Weather shop

ご案内